Time;durP1;ratioP1;P1;durP2;ratioP2;P2;SDS_P1;SDS_P2;PMS_P1;PMS_P2;Temp;Humidity;BMP_temperature;BMP_pressure;BME280_temperature;BME280_humidity;BME280_pressure;Samples;Min_cycle;Max_cycle;Signal;HPM_P1;HPM_P2
2023/06/28 00:00:03;;;;;;;4.32;1.70;;;;;;;;;;5013847;28;20111;-81
2023/06/28 00:02:42;;;;;;;1.98;1.15;;;;;;;;;;5015197;28;20087;-82
2023/06/28 00:05:09;;;;;;;3.22;1.52;;;;;;;;;;5032264;28;20065;-81
2023/06/28 00:07:36;;;;;;;5.22;1.30;;;;;;;;;;5029307;28;20064;-82
2023/06/28 00:10:03;;;;;;;3.83;1.55;;;;;;;;;;5020647;28;20144;-82
2023/06/28 00:12:30;;;;;;;4.32;1.50;;;;;;;;;;5028785;28;20158;-82
2023/06/28 00:14:57;;;;;;;2.20;1.45;;;;;;;;;;5029503;28;20045;-81
2023/06/28 00:17:27;;;;;;;3.10;1.40;;;;;;;;;;5030516;28;20049;-81
2023/06/28 00:19:54;;;;;;;4.05;1.35;;;;;;;;;;5030624;28;20586;-82
2023/06/28 00:22:23;;;;;;;3.85;1.52;;;;;;;;;;5013828;28;20045;-81
2023/06/28 00:24:50;;;;;;;3.15;1.58;;;;;;;;;;5032381;28;20045;-82
2023/06/28 00:27:17;;;;;;;6.18;1.67;;;;;;;;;;5030481;28;20041;-81
2023/06/28 00:29:44;;;;;;;3.45;1.60;;;;;;;;;;5013655;28;20077;-80
2023/06/28 00:32:10;;;;;;;4.28;1.70;;;;;;;;;;5015174;28;20045;-81
2023/06/28 00:34:38;;;;;;;4.43;1.50;;;;;;;;;;5031089;28;20053;-81
2023/06/28 00:37:07;;;;;;;5.82;1.73;;;;;;;;;;5031702;28;20061;-81
2023/06/28 00:39:36;;;;;;;4.65;1.77;;;;;;;;;;5032902;28;20038;-82
2023/06/28 00:42:03;;;;;;;5.00;1.63;;;;;;;;;;5031270;28;20084;-80
2023/06/28 00:44:29;;;;;;;7.97;2.38;;;;;;;;;;5013447;28;20105;-82
2023/06/28 00:46:57;;;;;;;4.55;1.98;;;;;;;;;;5030357;28;20080;-82
2023/06/28 00:49:26;;;;;;;5.47;1.70;;;;;;;;;;5033380;28;20100;-82
2023/06/28 00:51:54;;;;;;;4.07;1.50;;;;;;;;;;5016506;28;20057;-82
2023/06/28 00:54:21;;;;;;;2.40;1.50;;;;;;;;;;5014976;28;20157;-82
2023/06/28 00:56:48;;;;;;;8.88;1.90;;;;;;;;;;5031184;28;20049;-81
2023/06/28 00:59:15;;;;;;;5.30;2.05;;;;;;;;;;4997888;28;20097;-80
2023/06/28 01:01:43;;;;;;;8.18;2.10;;;;;;;;;;5005044;28;20073;-82
2023/06/28 01:04:09;;;;;;;5.18;2.20;;;;;;;;;;5004312;28;20284;-82
2023/06/28 01:06:37;;;;;;;4.95;1.83;;;;;;;;;;5021133;28;20101;-82
2023/06/28 01:09:07;;;;;;;7.97;2.30;;;;;;;;;;5015190;28;20039;-82
2023/06/28 01:11:34;;;;;;;4.65;1.83;;;;;;;;;;5001728;28;20049;-83
2023/06/28 01:14:04;;;;;;;5.70;2.20;;;;;;;;;;5036445;28;20449;-82
2023/06/28 01:16:31;;;;;;;8.18;2.13;;;;;;;;;;5013079;28;20411;-82
2023/06/28 01:18:57;;;;;;;6.68;2.00;;;;;;;;;;5011284;28;20095;-83
2023/06/28 01:21:45;;;;;;;4.75;2.38;;;;;;;;;;4995252;28;20111;-83
2023/06/28 01:24:12;;;;;;;7.93;2.30;;;;;;;;;;5011056;28;20177;-81
2023/06/28 01:26:42;;;;;;;8.43;2.35;;;;;;;;;;5022811;28;20091;-83
2023/06/28 01:29:09;;;;;;;7.50;2.38;;;;;;;;;;5009672;28;20118;-83
2023/06/28 01:31:36;;;;;;;4.15;2.20;;;;;;;;;;5011679;28;20049;-83
2023/06/28 01:34:02;;;;;;;8.85;2.40;;;;;;;;;;5014065;28;20057;-82
2023/06/28 01:36:31;;;;;;;8.50;3.00;;;;;;;;;;5013746;28;20721;-82
2023/06/28 01:38:58;;;;;;;4.00;2.50;;;;;;;;;;5018323;28;20041;-82
2023/06/28 01:41:26;;;;;;;9.00;2.30;;;;;;;;;;5013081;28;20107;-82
2023/06/28 01:43:53;;;;;;;6.05;2.50;;;;;;;;;;5004009;28;20482;-81
2023/06/28 01:46:19;;;;;;;6.60;2.15;;;;;;;;;;5008761;28;20300;-82
2023/06/28 01:48:47;;;;;;;4.88;2.60;;;;;;;;;;5008392;28;20042;-82
2023/06/28 01:51:13;;;;;;;5.38;2.80;;;;;;;;;;5016451;28;20124;-82
2023/06/28 01:53:40;;;;;;;19.02;3.03;;;;;;;;;;5015742;28;20037;-82
2023/06/28 01:56:07;;;;;;;8.63;2.90;;;;;;;;;;5029735;28;20064;-83
2023/06/28 01:58:34;;;;;;;5.05;2.70;;;;;;;;;;4995476;28;20078;-82
2023/06/28 02:01:00;;;;;;;8.85;3.20;;;;;;;;;;4977696;28;20458;-82
2023/06/28 02:03:27;;;;;;;8.50;3.15;;;;;;;;;;5013054;28;20110;-83
2023/06/28 02:05:54;;;;;;;6.50;3.05;;;;;;;;;;4996740;28;20049;-82
2023/06/28 02:08:21;;;;;;;6.68;2.97;;;;;;;;;;4996154;28;20084;-81
2023/06/28 02:10:47;;;;;;;5.82;3.00;;;;;;;;;;4979265;28;20046;-82
2023/06/28 02:13:14;;;;;;;8.73;2.60;;;;;;;;;;4979575;28;20064;-83
2023/06/28 02:15:41;;;;;;;7.13;2.78;;;;;;;;;;4994645;28;20775;-82
2023/06/28 02:18:10;;;;;;;3.45;2.55;;;;;;;;;;4979559;28;20054;-82
2023/06/28 02:20:37;;;;;;;12.25;3.40;;;;;;;;;;4995794;28;20050;-83
2023/06/28 02:23:06;;;;;;;7.82;2.95;;;;;;;;;;4996810;28;20065;-82
2023/06/28 02:25:35;;;;;;;6.35;2.80;;;;;;;;;;4995671;28;20068;-81
2023/06/28 02:28:02;;;;;;;9.63;3.53;;;;;;;;;;4980347;28;20048;-82
2023/06/28 02:30:28;;;;;;;6.90;2.83;;;;;;;;;;4996038;28;20141;-83
2023/06/28 02:32:55;;;;;;;6.10;2.53;;;;;;;;;;4997574;28;20104;-82
2023/06/28 02:35:22;;;;;;;8.68;3.03;;;;;;;;;;4997209;28;20084;-83
2023/06/28 02:37:48;;;;;;;17.55;3.78;;;;;;;;;;4979324;28;20148;-81
2023/06/28 02:40:15;;;;;;;12.10;3.40;;;;;;;;;;4996251;28;20046;-82
2023/06/28 02:42:41;;;;;;;4.95;3.15;;;;;;;;;;4979930;28;20042;-83
2023/06/28 02:45:08;;;;;;;7.82;2.78;;;;;;;;;;5003553;28;20046;-84
2023/06/28 02:47:35;;;;;;;9.73;3.63;;;;;;;;;;4993421;28;20138;-82
2023/06/28 02:50:05;;;;;;;5.63;3.20;;;;;;;;;;5011701;28;20096;-82
2023/06/28 02:52:42;;;;;;;6.57;3.30;;;;;;;;;;5013757;28;20498;-82
2023/06/28 02:55:09;;;;;;;7.13;3.08;;;;;;;;;;5008123;28;20045;-83
2023/06/28 02:57:37;;;;;;;6.32;3.05;;;;;;;;;;5007249;28;20545;-82
2023/06/28 03:00:13;;;;;;;8.45;3.42;;;;;;;;;;4992783;28;20046;-82
2023/06/28 03:02:40;;;;;;;8.23;3.25;;;;;;;;;;5013777;28;20044;-82
2023/06/28 03:05:07;;;;;;;11.20;3.30;;;;;;;;;;5010275;28;20088;-81
2023/06/28 03:07:33;;;;;;;11.43;3.45;;;;;;;;;;5008945;28;20091;-81
2023/06/28 03:10:00;;;;;;;7.78;3.25;;;;;;;;;;5010795;28;20042;-82
2023/06/28 03:12:30;;;;;;;11.20;3.60;;;;;;;;;;5010748;28;20041;-81
2023/06/28 03:14:58;;;;;;;8.65;3.17;;;;;;;;;;4993805;28;20109;-81
2023/06/28 03:17:27;;;;;;;12.23;3.88;;;;;;;;;;5010745;28;20057;-81
2023/06/28 03:19:54;;;;;;;7.63;3.40;;;;;;;;;;5011767;28;20042;-82
2023/06/28 03:22:20;;;;;;;13.23;3.30;;;;;;;;;;4996586;28;20156;-81
2023/06/28 03:24:47;;;;;;;9.65;3.35;;;;;;;;;;4992128;28;20114;-83
2023/06/28 03:27:14;;;;;;;10.55;3.40;;;;;;;;;;5007666;28;20038;-82
2023/06/28 03:29:41;;;;;;;12.68;3.65;;;;;;;;;;4995714;28;20042;-81
2023/06/28 03:32:08;;;;;;;9.02;3.40;;;;;;;;;;5007093;28;20053;-82
2023/06/28 03:34:35;;;;;;;15.20;3.88;;;;;;;;;;5016579;28;20370;-82
2023/06/28 03:37:02;;;;;;;9.00;3.63;;;;;;;;;;4979278;28;20050;-81
2023/06/28 03:39:31;;;;;;;10.63;3.67;;;;;;;;;;5015201;28;20045;-81
2023/06/28 03:41:58;;;;;;;12.07;3.65;;;;;;;;;;5030243;28;20041;-82
2023/06/28 03:44:25;;;;;;;11.20;3.17;;;;;;;;;;5012143;28;20067;-81
2023/06/28 03:46:52;;;;;;;8.35;3.15;;;;;;;;;;5009103;28;20076;-82
2023/06/28 03:49:19;;;;;;;7.50;3.10;;;;;;;;;;5008109;28;20038;-82
2023/06/28 03:51:46;;;;;;;9.45;3.17;;;;;;;;;;5009841;28;20086;-82
2023/06/28 03:54:13;;;;;;;12.05;3.35;;;;;;;;;;5009008;28;20117;-81
2023/06/28 03:56:41;;;;;;;7.38;3.50;;;;;;;;;;5008068;28;20052;-80
2023/06/28 03:59:08;;;;;;;13.27;3.47;;;;;;;;;;5010253;28;20041;-82
2023/06/28 04:01:35;;;;;;;9.77;3.40;;;;;;;;;;4994776;28;20042;-81
2023/06/28 04:04:02;;;;;;;7.43;3.15;;;;;;;;;;5020675;28;20061;-85
2023/06/28 04:06:29;;;;;;;9.57;3.65;;;;;;;;;;5015052;28;20534;-82
2023/06/28 04:08:55;;;;;;;9.57;3.70;;;;;;;;;;5024187;28;20038;-82
2023/06/28 04:11:22;;;;;;;7.53;3.42;;;;;;;;;;5035454;28;20050;-82
2023/06/28 04:13:48;;;;;;;10.73;3.50;;;;;;;;;;5035773;28;20049;-81
2023/06/28 04:16:15;;;;;;;8.30;3.40;;;;;;;;;;5032415;28;20049;-82
2023/06/28 04:18:41;;;;;;;9.85;3.13;;;;;;;;;;5030932;28;20172;-83
2023/06/28 04:21:08;;;;;;;10.98;3.40;;;;;;;;;;5031548;28;20075;-83
2023/06/28 04:23:35;;;;;;;11.80;3.53;;;;;;;;;;5014162;28;20053;-82
2023/06/28 04:26:02;;;;;;;12.60;3.75;;;;;;;;;;5028589;28;20530;-84
2023/06/28 04:28:29;;;;;;;10.82;3.35;;;;;;;;;;5031946;28;20041;-82
2023/06/28 04:30:55;;;;;;;8.00;2.88;;;;;;;;;;4992367;28;20100;-83
2023/06/28 04:33:22;;;;;;;7.30;3.22;;;;;;;;;;5027730;28;20060;-81
2023/06/28 04:35:51;;;;;;;8.35;2.60;;;;;;;;;;5007836;28;20072;-81
2023/06/28 04:38:20;;;;;;;8.73;3.28;;;;;;;;;;5017179;28;20049;-82
2023/06/28 04:40:47;;;;;;;7.57;2.45;;;;;;;;;;5016797;28;20120;-83
2023/06/28 04:43:14;;;;;;;5.85;2.45;;;;;;;;;;5016117;28;20038;-83
2023/06/28 04:45:43;;;;;;;13.75;2.65;;;;;;;;;;4997997;28;20053;-82
2023/06/28 04:48:10;;;;;;;7.63;2.35;;;;;;;;;;4996286;28;20134;-83
2023/06/28 04:50:37;;;;;;;10.10;3.00;;;;;;;;;;5025201;28;20049;-83
2023/06/28 04:53:04;;;;;;;9.73;2.95;;;;;;;;;;5007332;28;20062;-87
2023/06/28 04:55:34;;;;;;;12.60;2.65;;;;;;;;;;5018269;28;20081;-85
2023/06/28 04:58:02;;;;;;;6.95;2.28;;;;;;;;;;5020216;28;20592;-86
2023/06/28 05:00:32;;;;;;;10.77;2.80;;;;;;;;;;5020302;28;20487;-86
2023/06/28 05:03:10;;;;;;;8.45;2.42;;;;;;;;;;5013431;28;20125;-87
2023/06/28 05:05:37;;;;;;;11.85;2.45;;;;;;;;;;5013851;28;20038;-86
2023/06/28 05:08:04;;;;;;;7.53;2.33;;;;;;;;;;5023848;28;20117;-86
2023/06/28 05:10:30;;;;;;;13.75;2.90;;;;;;;;;;4997079;28;20465;-84
2023/06/28 05:12:57;;;;;;;5.93;2.28;;;;;;;;;;4998092;28;20487;-85
2023/06/28 05:15:24;;;;;;;10.75;2.53;;;;;;;;;;4999341;28;20504;-85
2023/06/28 05:17:51;;;;;;;8.32;2.53;;;;;;;;;;4999934;28;20065;-85
2023/06/28 05:20:18;;;;;;;11.27;2.70;;;;;;;;;;5000933;28;20169;-81
2023/06/28 05:22:51;;;;;;;10.75;2.40;;;;;;;;;;5018657;28;20065;-83
2023/06/28 05:25:18;;;;;;;9.27;2.38;;;;;;;;;;4996540;28;20642;-85
2023/06/28 05:27:45;;;;;;;10.13;2.78;;;;;;;;;;4991209;28;20045;-83
2023/06/28 05:30:11;;;;;;;6.72;2.65;;;;;;;;;;4990346;28;20061;-87
2023/06/28 05:32:38;;;;;;;8.18;2.25;;;;;;;;;;4994417;28;20710;-86
2023/06/28 05:35:05;;;;;;;13.15;2.85;;;;;;;;;;4988444;28;20085;-81
2023/06/28 05:37:32;;;;;;;10.85;2.40;;;;;;;;;;5013191;28;20087;-83
2023/06/28 05:39:58;;;;;;;8.45;2.30;;;;;;;;;;4994372;28;20423;-84
2023/06/28 05:42:25;;;;;;;4.70;2.40;;;;;;;;;;4997965;28;20513;-83
2023/06/28 05:44:52;;;;;;;12.25;2.33;;;;;;;;;;5015098;28;20112;-83
2023/06/28 05:47:19;;;;;;;8.70;2.30;;;;;;;;;;5035559;28;20037;-84
2023/06/28 05:49:46;;;;;;;15.88;2.63;;;;;;;;;;5004765;28;20119;-83
2023/06/28 05:52:12;;;;;;;11.68;2.50;;;;;;;;;;5022569;28;20037;-85
2023/06/28 05:54:39;;;;;;;9.88;2.40;;;;;;;;;;5023631;28;20418;-84
2023/06/28 05:57:05;;;;;;;11.23;2.50;;;;;;;;;;5021352;28;20103;-85
2023/06/28 05:59:32;;;;;;;13.98;3.33;;;;;;;;;;5040528;28;20045;-84
2023/06/28 06:01:59;;;;;;;15.80;2.60;;;;;;;;;;5022831;28;20467;-85
2023/06/28 06:04:25;;;;;;;13.40;2.88;;;;;;;;;;5006342;28;20046;-84
2023/06/28 06:06:52;;;;;;;13.35;2.63;;;;;;;;;;5022423;28;20418;-84
2023/06/28 06:09:19;;;;;;;13.43;2.75;;;;;;;;;;5014070;28;20430;-83
2023/06/28 06:11:45;;;;;;;10.82;2.78;;;;;;;;;;5031554;28;20043;-83
2023/06/28 06:14:12;;;;;;;9.57;2.45;;;;;;;;;;5001691;28;20075;-84
2023/06/28 06:16:39;;;;;;;7.88;2.45;;;;;;;;;;5044954;28;20105;-84
2023/06/28 06:19:05;;;;;;;14.35;2.67;;;;;;;;;;5032869;28;20061;-83
2023/06/28 06:21:32;;;;;;;15.23;2.70;;;;;;;;;;5033677;28;20048;-83
2023/06/28 06:23:59;;;;;;;12.48;2.20;;;;;;;;;;5014629;28;20068;-85
2023/06/28 06:26:27;;;;;;;8.38;2.22;;;;;;;;;;5015340;28;20083;-83
2023/06/28 06:28:54;;;;;;;8.75;2.20;;;;;;;;;;5032577;28;20042;-83
2023/06/28 06:31:21;;;;;;;9.10;2.45;;;;;;;;;;5042620;28;20053;-83
2023/06/28 06:33:47;;;;;;;7.15;2.10;;;;;;;;;;5040467;28;20103;-84
2023/06/28 06:36:14;;;;;;;6.60;1.85;;;;;;;;;;4995895;28;20447;-83
2023/06/28 06:38:41;;;;;;;11.57;2.72;;;;;;;;;;5013501;28;20065;-83
2023/06/28 06:41:07;;;;;;;12.77;1.83;;;;;;;;;;5015049;28;20237;-84
2023/06/28 06:43:34;;;;;;;13.77;2.20;;;;;;;;;;5010176;28;20115;-84
2023/06/28 06:46:01;;;;;;;7.25;2.45;;;;;;;;;;5011230;28;20319;-83
2023/06/28 06:48:27;;;;;;;9.00;2.13;;;;;;;;;;5017773;28;20068;-80
2023/06/28 06:50:54;;;;;;;15.32;2.28;;;;;;;;;;5036629;28;20037;-83
2023/06/28 06:53:20;;;;;;;16.48;2.88;;;;;;;;;;5038323;28;20041;-82
2023/06/28 06:55:47;;;;;;;9.35;2.10;;;;;;;;;;5020357;28;20076;-85
2023/06/28 06:58:13;;;;;;;6.10;2.22;;;;;;;;;;5022817;28;20054;-86
2023/06/28 07:00:40;;;;;;;15.30;2.42;;;;;;;;;;5005971;28;20155;-85
2023/06/28 07:03:08;;;;;;;7.55;2.10;;;;;;;;;;5024934;28;20545;-83
2023/06/28 07:05:35;;;;;;;14.30;2.63;;;;;;;;;;5023048;28;20049;-84
2023/06/28 07:08:01;;;;;;;7.75;1.98;;;;;;;;;;5023791;28;20061;-82
2023/06/28 07:10:28;;;;;;;11.20;2.05;;;;;;;;;;5023844;28;20572;-85
2023/06/28 07:12:54;;;;;;;7.97;2.45;;;;;;;;;;5022191;28;20046;-84
2023/06/28 07:15:21;;;;;;;11.27;2.47;;;;;;;;;;5021933;28;20064;-82
2023/06/28 07:17:47;;;;;;;12.23;2.47;;;;;;;;;;5021209;28;20080;-84
2023/06/28 07:20:14;;;;;;;9.00;2.30;;;;;;;;;;5017586;28;20518;-85
2023/06/28 07:22:41;;;;;;;10.23;2.20;;;;;;;;;;5000911;28;20103;-83
2023/06/28 07:25:08;;;;;;;8.18;2.45;;;;;;;;;;5000349;28;20046;-83
2023/06/28 07:27:35;;;;;;;7.32;1.75;;;;;;;;;;5017059;28;20061;-84
2023/06/28 07:30:02;;;;;;;7.95;2.30;;;;;;;;;;5016132;28;20077;-83
2023/06/28 07:32:28;;;;;;;10.68;2.25;;;;;;;;;;5010957;28;20133;-82
2023/06/28 07:34:55;;;;;;;16.00;2.53;;;;;;;;;;5012657;28;20072;-82
2023/06/28 07:37:22;;;;;;;10.57;2.30;;;;;;;;;;5011489;28;20522;-83
2023/06/28 07:39:48;;;;;;;9.85;2.05;;;;;;;;;;4993927;28;20041;-83
2023/06/28 07:42:15;;;;;;;11.00;2.25;;;;;;;;;;5009769;28;20046;-83
2023/06/28 07:44:41;;;;;;;10.63;2.10;;;;;;;;;;4996024;28;20041;-85
2023/06/28 07:47:09;;;;;;;8.57;2.17;;;;;;;;;;4994328;28;20080;-83
2023/06/28 07:49:35;;;;;;;12.00;2.30;;;;;;;;;;4997778;28;20133;-83
2023/06/28 07:52:03;;;;;;;8.25;1.98;;;;;;;;;;5017261;28;20506;-81
2023/06/28 07:54:30;;;;;;;8.73;1.90;;;;;;;;;;5017498;28;20080;-82
2023/06/28 07:57:00;;;;;;;9.32;2.35;;;;;;;;;;5013501;28;20045;-81
2023/06/28 07:59:27;;;;;;;10.23;1.73;;;;;;;;;;5016741;28;20044;-83
2023/06/28 08:01:54;;;;;;;10.30;1.88;;;;;;;;;;5024280;28;20048;-83
2023/06/28 08:04:22;;;;;;;4.10;1.20;;;;;;;;;;5025558;28;20049;-84
2023/06/28 08:06:49;;;;;;;8.38;1.52;;;;;;;;;;5022816;28;20041;-85
2023/06/28 08:09:16;;;;;;;11.45;1.70;;;;;;;;;;5023139;28;20049;-84
2023/06/28 08:11:42;;;;;;;7.40;1.45;;;;;;;;;;5030668;28;20045;-84
2023/06/28 08:14:09;;;;;;;7.30;1.70;;;;;;;;;;5026473;28;20068;-84
2023/06/28 08:16:35;;;;;;;7.40;1.80;;;;;;;;;;5044124;28;20064;-82
2023/06/28 08:19:02;;;;;;;8.13;1.60;;;;;;;;;;5004121;28;20506;-84
2023/06/28 08:21:28;;;;;;;9.07;1.70;;;;;;;;;;5018180;28;20042;-84
2023/06/28 08:23:55;;;;;;;9.57;1.65;;;;;;;;;;5036596;28;20045;-83
2023/06/28 08:26:22;;;;;;;7.72;1.85;;;;;;;;;;5002535;28;20053;-81
2023/06/28 08:28:49;;;;;;;4.75;1.40;;;;;;;;;;5014804;28;20095;-81
2023/06/28 08:31:25;;;;;;;9.02;1.35;;;;;;;;;;5016446;28;20061;-84
2023/06/28 08:33:52;;;;;;;10.07;1.70;;;;;;;;;;5000279;28;20041;-82
2023/06/28 08:36:19;;;;;;;6.43;1.30;;;;;;;;;;5033563;28;20429;-81
2023/06/28 08:38:45;;;;;;;6.65;1.55;;;;;;;;;;5017400;28;20045;-82
2023/06/28 08:41:13;;;;;;;8.73;1.65;;;;;;;;;;5016941;28;20107;-82
2023/06/28 08:43:42;;;;;;;6.18;1.50;;;;;;;;;;5019402;28;20056;-83
2023/06/28 08:46:34;;;;;;;5.70;1.50;;;;;;;;;;5027582;28;20128;-83
2023/06/28 08:49:01;;;;;;;12.88;1.35;;;;;;;;;;5021784;28;20042;-83
2023/06/28 08:51:27;;;;;;;5.32;1.50;;;;;;;;;;5021355;28;20049;-81
2023/06/28 08:53:54;;;;;;;5.93;1.45;;;;;;;;;;5019976;28;20049;-82
2023/06/28 08:56:22;;;;;;;8.98;1.60;;;;;;;;;;5000820;28;20542;-83
2023/06/28 08:58:49;;;;;;;10.73;1.50;;;;;;;;;;5003316;28;20042;-83
2023/06/28 09:01:15;;;;;;;5.65;1.10;;;;;;;;;;5002185;28;20137;-83
2023/06/28 09:03:42;;;;;;;5.28;1.40;;;;;;;;;;5003254;28;20191;-81
2023/06/28 09:06:10;;;;;;;5.18;1.23;;;;;;;;;;5002285;28;20070;-82
2023/06/28 09:08:37;;;;;;;8.60;1.48;;;;;;;;;;4986866;28;20114;-83
2023/06/28 09:11:04;;;;;;;4.50;1.33;;;;;;;;;;5002973;28;20045;-84
2023/06/28 09:13:30;;;;;;;6.28;1.45;;;;;;;;;;4986099;28;20500;-82
2023/06/28 09:15:57;;;;;;;11.15;1.45;;;;;;;;;;5020834;28;20521;-84
2023/06/28 09:18:24;;;;;;;5.70;1.33;;;;;;;;;;5003346;28;20099;-84
2023/06/28 09:20:51;;;;;;;6.20;1.50;;;;;;;;;;5003010;28;20046;-81
2023/06/28 09:23:24;;;;;;;5.18;1.08;;;;;;;;;;5002833;28;20041;-82
2023/06/28 09:25:51;;;;;;;4.53;1.20;;;;;;;;;;5013079;28;20057;-83
2023/06/28 09:28:19;;;;;;;10.25;1.35;;;;;;;;;;4996572;28;20042;-81
2023/06/28 09:30:55;;;;;;;8.60;1.25;;;;;;;;;;5016278;28;20034;-83
2023/06/28 09:33:25;;;;;;;4.03;1.00;;;;;;;;;;5000945;28;20053;-83
2023/06/28 09:35:59;;;;;;;5.57;1.05;;;;;;;;;;5007798;28;20045;-85
2023/06/28 09:38:26;;;;;;;7.13;1.35;;;;;;;;;;4995157;28;20049;-85
2023/06/28 09:40:56;;;;;;;8.55;1.60;;;;;;;;;;5023843;28;20109;-83
2023/06/28 09:43:23;;;;;;;3.55;1.10;;;;;;;;;;5007448;28;20521;-82
2023/06/28 09:45:52;;;;;;;4.47;1.20;;;;;;;;;;5006350;28;20052;-82
2023/06/28 09:48:26;;;;;;;4.10;1.13;;;;;;;;;;5015981;28;20041;-83
2023/06/28 09:50:53;;;;;;;7.57;0.90;;;;;;;;;;5016772;28;20083;-83
2023/06/28 09:53:21;;;;;;;6.03;1.23;;;;;;;;;;5000449;28;20041;-82
2023/06/28 09:55:51;;;;;;;4.78;0.95;;;;;;;;;;5020238;28;20040;-82
2023/06/28 09:58:19;;;;;;;5.15;1.10;;;;;;;;;;5014080;28;20066;-83
2023/06/28 10:00:46;;;;;;;5.57;1.20;;;;;;;;;;5014537;28;20160;-82
2023/06/28 10:03:14;;;;;;;4.28;1.00;;;;;;;;;;4999044;28;20038;-83
2023/06/28 10:05:43;;;;;;;6.88;1.10;;;;;;;;;;5015284;28;20426;-84
2023/06/28 10:08:11;;;;;;;3.78;1.00;;;;;;;;;;4998018;28;20112;-80
2023/06/28 10:10:38;;;;;;;3.97;0.90;;;;;;;;;;5000093;28;20066;-81
2023/06/28 10:13:21;;;;;;;3.55;0.90;;;;;;;;;;5016344;28;20104;-81
2023/06/28 10:15:48;;;;;;;4.80;1.40;;;;;;;;;;5016825;28;20204;-83
2023/06/28 10:18:15;;;;;;;4.75;0.90;;;;;;;;;;5018806;28;20062;-82
2023/06/28 10:21:02;;;;;;;5.53;0.80;;;;;;;;;;5002933;28;20141;-84
2023/06/28 10:23:29;;;;;;;2.65;0.90;;;;;;;;;;5001191;28;20037;-82
2023/06/28 10:25:57;;;;;;;7.38;1.23;;;;;;;;;;5016323;28;20049;-83
2023/06/28 10:28:26;;;;;;;7.45;1.00;;;;;;;;;;5017063;28;20049;-81
2023/06/28 10:30:53;;;;;;;3.70;0.98;;;;;;;;;;5014663;28;20076;-80
2023/06/28 10:33:23;;;;;;;4.03;0.90;;;;;;;;;;5014191;28;20128;-85
2023/06/28 10:35:50;;;;;;;4.00;1.23;;;;;;;;;;5014173;28;20073;-81
2023/06/28 10:38:17;;;;;;;5.45;1.15;;;;;;;;;;5023402;28;20049;-81
2023/06/28 10:40:47;;;;;;;2.58;1.00;;;;;;;;;;5015965;28;20041;-81
2023/06/28 10:43:21;;;;;;;1.95;0.77;;;;;;;;;;5013411;28;20065;-82
2023/06/28 10:45:49;;;;;;;3.08;0.82;;;;;;;;;;5017220;28;20064;-84
2023/06/28 10:48:22;;;;;;;5.85;0.98;;;;;;;;;;5016606;28;20045;-82
2023/06/28 10:50:50;;;;;;;3.53;0.90;;;;;;;;;;5036109;28;20068;-82
2023/06/28 10:53:21;;;;;;;3.40;0.82;;;;;;;;;;5036702;28;20091;-83
2023/06/28 10:56:07;;;;;;;3.28;0.90;;;;;;;;;;5017861;28;20057;-83
2023/06/28 10:58:41;;;;;;;4.97;1.00;;;;;;;;;;5016569;28;20045;-81
2023/06/28 11:01:12;;;;;;;5.57;1.00;;;;;;;;;;4996406;28;20125;-83
2023/06/28 11:03:40;;;;;;;5.32;1.20;;;;;;;;;;4994281;28;20046;-83
2023/06/28 11:06:07;;;;;;;4.72;0.95;;;;;;;;;;5019839;28;20099;-83
2023/06/28 11:08:37;;;;;;;3.17;0.80;;;;;;;;;;5010075;28;20042;-85
2023/06/28 11:11:04;;;;;;;14.15;1.35;;;;;;;;;;5005841;28;20046;-80
2023/06/28 11:13:33;;;;;;;5.03;1.20;;;;;;;;;;4978717;28;20478;-84
2023/06/28 11:16:07;;;;;;;3.42;1.00;;;;;;;;;;4994384;28;20038;-81
2023/06/28 11:18:34;;;;;;;2.90;0.85;;;;;;;;;;4979733;28;20065;-83
2023/06/28 11:21:01;;;;;;;3.80;0.80;;;;;;;;;;4995717;28;20110;-83
2023/06/28 11:23:28;;;;;;;1.95;0.90;;;;;;;;;;4981363;28;20046;-83
2023/06/28 11:25:59;;;;;;;4.82;1.10;;;;;;;;;;4981621;28;20042;-82
2023/06/28 11:28:30;;;;;;;5.50;1.17;;;;;;;;;;4997545;28;20046;-82
2023/06/28 11:31:11;;;;;;;3.38;0.95;;;;;;;;;;4997798;28;20053;-82
2023/06/28 11:33:39;;;;;;;2.42;1.00;;;;;;;;;;4997992;28;20397;-82
2023/06/28 11:36:06;;;;;;;3.25;1.10;;;;;;;;;;4983666;28;20069;-81
2023/06/28 11:38:34;;;;;;;2.40;0.98;;;;;;;;;;4992834;28;20057;-82
2023/06/28 11:41:00;;;;;;;4.90;0.80;;;;;;;;;;5011610;28;20128;-82
2023/06/28 11:43:27;;;;;;;3.83;1.00;;;;;;;;;;5014351;28;20054;-82
2023/06/28 11:45:53;;;;;;;4.30;1.20;;;;;;;;;;5030463;28;20077;-84
2023/06/28 11:48:20;;;;;;;5.28;1.00;;;;;;;;;;5021439;28;20076;-85
2023/06/28 11:51:00;;;;;;;3.83;0.93;;;;;;;;;;5018472;28;20186;-83
2023/06/28 11:53:27;;;;;;;5.90;1.08;;;;;;;;;;5025071;28;20049;-84
2023/06/28 11:55:58;;;;;;;4.75;1.10;;;;;;;;;;5024002;28;20053;-82
2023/06/28 11:58:28;;;;;;;4.63;0.95;;;;;;;;;;5022101;28;20068;-83
2023/06/28 12:00:54;;;;;;;6.63;1.08;;;;;;;;;;5019651;28;20514;-82
2023/06/28 12:03:37;;;;;;;3.65;0.98;;;;;;;;;;5021511;28;20046;-84
2023/06/28 12:06:09;;;;;;;3.03;0.98;;;;;;;;;;5018681;28;20034;-83
2023/06/28 12:08:38;;;;;;;4.30;1.20;;;;;;;;;;5001566;28;20050;-84
2023/06/28 12:11:09;;;;;;;2.35;0.80;;;;;;;;;;5018797;28;20288;-83
2023/06/28 12:13:36;;;;;;;3.65;1.00;;;;;;;;;;5017710;28;20058;-81
2023/06/28 12:16:16;;;;;;;4.10;1.23;;;;;;;;;;4998419;28;20073;-80
2023/06/28 12:18:53;;;;;;;4.53;1.30;;;;;;;;;;5017614;28;20057;-82
2023/06/28 12:21:23;;;;;;;3.10;1.23;;;;;;;;;;5018127;28;20041;-82
2023/06/28 12:23:50;;;;;;;2.55;0.82;;;;;;;;;;5029907;28;20129;-83
2023/06/28 12:26:17;;;;;;;3.53;1.00;;;;;;;;;;5030554;28;20109;-82
2023/06/28 12:28:48;;;;;;;3.83;0.95;;;;;;;;;;5021618;28;20475;-82
2023/06/28 12:31:15;;;;;;;3.40;1.20;;;;;;;;;;5014018;28;20172;-80
2023/06/28 12:33:42;;;;;;;4.10;1.10;;;;;;;;;;5013220;28;20046;-81
2023/06/28 12:36:13;;;;;;;3.50;1.00;;;;;;;;;;5015671;28;20498;-81
2023/06/28 12:38:44;;;;;;;2.72;0.93;;;;;;;;;;5026360;28;20522;-85
2023/06/28 12:41:11;;;;;;;2.55;0.88;;;;;;;;;;5021056;28;20112;-82
2023/06/28 12:43:38;;;;;;;1.95;0.85;;;;;;;;;;5026188;28;20042;-80
2023/06/28 12:46:09;;;;;;;7.43;1.02;;;;;;;;;;5002380;28;20080;-81
2023/06/28 12:48:36;;;;;;;3.15;1.08;;;;;;;;;;5036456;28;20072;-82
2023/06/28 12:51:03;;;;;;;12.45;1.20;;;;;;;;;;4999895;28;20049;-85
2023/06/28 12:53:30;;;;;;;6.80;1.00;;;;;;;;;;5016889;28;20045;-83
2023/06/28 12:55:56;;;;;;;4.57;0.90;;;;;;;;;;5016143;28;20413;-82
2023/06/28 12:58:23;;;;;;;5.68;1.20;;;;;;;;;;5033314;28;20064;-83
2023/06/28 13:00:50;;;;;;;3.20;1.00;;;;;;;;;;4998768;28;20057;-77
2023/06/28 13:03:16;;;;;;;4.07;1.02;;;;;;;;;;5021962;28;20521;-78
2023/06/28 13:05:48;;;;;;;4.38;1.00;;;;;;;;;;5004346;28;20566;-77
2023/06/28 13:08:14;;;;;;;3.58;1.17;;;;;;;;;;5003508;28;20058;-78
2023/06/28 13:10:41;;;;;;;2.63;1.00;;;;;;;;;;5001367;28;20140;-75
2023/06/28 13:13:08;;;;;;;5.85;1.23;;;;;;;;;;4995304;28;20517;-76
2023/06/28 13:15:36;;;;;;;2.88;0.90;;;;;;;;;;5021912;28;20042;-75
2023/06/28 13:18:04;;;;;;;8.50;1.30;;;;;;;;;;5000290;28;20147;-77
2023/06/28 13:20:33;;;;;;;8.45;1.10;;;;;;;;;;5022750;28;20042;-79
2023/06/28 13:23:00;;;;;;;6.35;1.20;;;;;;;;;;5012108;28;20045;-78
2023/06/28 13:25:27;;;;;;;7.43;1.30;;;;;;;;;;5011875;28;20053;-78
2023/06/28 13:27:53;;;;;;;10.68;1.05;;;;;;;;;;5037208;28;20053;-79
2023/06/28 13:30:21;;;;;;;5.57;1.20;;;;;;;;;;5053550;28;20052;-76
2023/06/28 13:32:49;;;;;;;4.28;1.20;;;;;;;;;;5035090;28;20063;-77
2023/06/28 13:35:16;;;;;;;3.97;1.20;;;;;;;;;;5040115;28;20098;-76
2023/06/28 13:37:45;;;;;;;4.20;0.90;;;;;;;;;;5039249;28;20040;-77
2023/06/28 13:40:12;;;;;;;4.10;0.90;;;;;;;;;;5032266;28;20049;-75
2023/06/28 13:42:39;;;;;;;4.18;0.88;;;;;;;;;;5030938;28;20128;-75
2023/06/28 13:45:05;;;;;;;4.43;1.10;;;;;;;;;;5019288;28;20080;-77
2023/06/28 13:47:32;;;;;;;5.72;1.10;;;;;;;;;;5031488;28;20230;-82
2023/06/28 13:49:59;;;;;;;3.63;1.23;;;;;;;;;;5026798;28;20085;-82
2023/06/28 13:52:25;;;;;;;4.30;0.90;;;;;;;;;;5018303;28;20054;-81
2023/06/28 13:54:52;;;;;;;4.72;0.82;;;;;;;;;;5017786;28;20422;-80
2023/06/28 13:57:23;;;;;;;4.38;0.93;;;;;;;;;;5005884;28;20075;-82
2023/06/28 13:59:50;;;;;;;2.78;1.00;;;;;;;;;;5036468;28;20055;-82
2023/06/28 14:02:17;;;;;;;3.15;1.08;;;;;;;;;;5018963;28;20062;-81
2023/06/28 14:04:43;;;;;;;6.55;1.30;;;;;;;;;;5037741;28;20084;-83
2023/06/28 14:07:10;;;;;;;7.00;1.02;;;;;;;;;;5029168;28;20124;-80
2023/06/28 14:09:37;;;;;;;2.42;0.90;;;;;;;;;;5037109;28;20049;-81
2023/06/28 14:12:03;;;;;;;3.05;0.98;;;;;;;;;;5037985;28;20052;-84
2023/06/28 14:14:30;;;;;;;4.28;1.13;;;;;;;;;;5045629;28;20060;-85
2023/06/28 14:16:57;;;;;;;5.85;1.10;;;;;;;;;;5032105;28;20096;-83
2023/06/28 14:19:23;;;;;;;3.78;1.10;;;;;;;;;;5019550;28;20486;-82
2023/06/28 14:21:50;;;;;;;4.20;1.02;;;;;;;;;;4999116;28;20060;-82
2023/06/28 14:24:16;;;;;;;3.97;1.00;;;;;;;;;;5033348;28;20049;-82
2023/06/28 14:26:45;;;;;;;3.08;0.90;;;;;;;;;;5024519;28;20046;-81
2023/06/28 14:29:11;;;;;;;4.90;1.10;;;;;;;;;;5017393;28;20468;-81
2023/06/28 14:31:38;;;;;;;3.60;1.40;;;;;;;;;;5013563;28;20117;-80
2023/06/28 14:34:04;;;;;;;4.32;1.17;;;;;;;;;;5011685;28;20060;-80
2023/06/28 14:36:32;;;;;;;3.15;0.90;;;;;;;;;;5011941;28;20046;-82
2023/06/28 14:38:59;;;;;;;3.78;1.13;;;;;;;;;;4999675;28;20082;-85
2023/06/28 14:41:27;;;;;;;3.15;1.20;;;;;;;;;;5033077;28;20104;-84
2023/06/28 14:43:54;;;;;;;4.93;1.20;;;;;;;;;;5003119;28;20056;-81